createdAt,value
2022-07-29T00:00:48.180Z,4
2022-07-29T00:10:33.596Z,2
2022-07-29T00:20:33.098Z,5
2022-07-29T00:30:33.956Z,6
2022-07-29T00:40:33.225Z,3
2022-07-29T00:50:33.641Z,3
2022-07-29T01:00:33.624Z,5
2022-07-29T01:10:33.567Z,3
2022-07-29T01:20:33.292Z,4
2022-07-29T01:30:33.059Z,5
2022-07-29T01:40:33.124Z,4
2022-07-29T01:50:33.429Z,4
2022-07-29T02:00:32.891Z,6
2022-07-29T02:10:32.919Z,8
2022-07-29T02:20:33.496Z,6
2022-07-29T02:30:32.979Z,6
2022-07-29T02:40:33.258Z,2
2022-07-29T02:50:33.198Z,3
2022-07-29T03:00:33.674Z,4
2022-07-29T03:10:33.132Z,4
2022-07-29T03:20:32.943Z,7
2022-07-29T03:30:33.533Z,5
2022-07-29T03:40:33.232Z,6
2022-07-29T03:50:32.770Z,6
2022-07-29T04:00:33.281Z,6
2022-07-29T04:10:34.152Z,5
2022-07-29T04:20:33.321Z,5
2022-07-29T04:30:33.686Z,7
2022-07-29T04:40:33.909Z,5
2022-07-29T04:50:33.358Z,6
2022-07-29T05:00:33.823Z,3
2022-07-29T05:10:33.468Z,5
2022-07-29T05:20:33.215Z,3
2022-07-29T05:30:33.644Z,5
2022-07-29T05:40:32.935Z,5
2022-07-29T05:50:33.396Z,2
2022-07-29T06:00:33.717Z,6
2022-07-29T06:10:33.000Z,4
2022-07-29T06:20:33.341Z,4
2022-07-29T06:30:32.951Z,5
2022-07-29T06:40:33.407Z,3
2022-07-29T06:50:33.291Z,2
2022-07-29T07:00:33.608Z,3
2022-07-29T07:10:32.770Z,6
2022-07-29T07:20:33.590Z,4
2022-07-29T07:30:33.013Z,7
2022-07-29T07:40:33.413Z,5
2022-07-29T07:50:32.795Z,3
2022-07-29T08:00:33.532Z,3
2022-07-29T08:10:32.836Z,4
2022-07-29T08:20:33.239Z,4
2022-07-29T08:30:33.119Z,6
2022-07-29T08:40:32.995Z,3
2022-07-29T08:50:33.512Z,4
2022-07-29T09:00:33.549Z,5
2022-07-29T09:10:33.704Z,4
2022-07-29T09:20:32.827Z,5
2022-07-29T09:30:33.136Z,4
2022-07-29T09:40:33.545Z,4
2022-07-29T09:50:32.987Z,6
2022-07-29T10:00:33.174Z,7
2022-07-29T10:10:33.178Z,4
2022-07-29T10:20:33.425Z,2
2022-07-29T10:30:33.322Z,5
2022-07-29T10:40:32.845Z,5
2022-07-29T10:50:33.654Z,6
2022-07-29T11:00:33.312Z,6
2022-07-29T11:10:33.660Z,4
2022-07-29T11:20:33.063Z,5
2022-07-29T11:30:33.607Z,4
2022-07-29T11:40:33.863Z,3
2022-07-29T11:50:33.310Z,3
2022-07-29T12:00:33.155Z,8
2022-07-29T12:10:33.590Z,8
2022-07-29T12:20:33.078Z,12
2022-07-29T12:30:33.281Z,7
2022-07-29T12:40:33.752Z,5
2022-07-29T12:50:33.110Z,6
2022-07-29T13:00:34.241Z,3
2022-07-29T13:10:33.570Z,4
2022-07-29T13:20:33.167Z,5
2022-07-29T13:30:33.717Z,5
2022-07-29T13:40:33.103Z,6
2022-07-29T13:50:33.471Z,8
2022-07-29T14:00:32.944Z,6
2022-07-29T14:10:33.432Z,4
2022-07-29T14:20:32.835Z,4
2022-07-29T14:30:33.143Z,5
2022-07-29T14:40:33.508Z,5
2022-07-29T14:50:32.842Z,6
2022-07-29T15:00:33.295Z,6
2022-07-29T15:10:33.666Z,8
2022-07-29T15:20:33.121Z,5
2022-07-29T15:30:34.446Z,6
2022-07-29T15:40:33.562Z,6
2022-07-29T15:50:32.959Z,4
2022-07-29T16:00:33.832Z,8
2022-07-29T16:10:33.254Z,6
2022-07-29T16:20:33.789Z,7
2022-07-29T16:30:33.078Z,5
2022-07-29T16:40:33.481Z,6
2022-07-29T16:50:32.942Z,6
2022-07-29T17:00:33.324Z,6
2022-07-29T17:10:33.720Z,5
2022-07-29T17:20:33.168Z,9
2022-07-29T17:30:33.799Z,6
2022-07-29T17:40:33.120Z,10
2022-07-29T17:50:33.499Z,8
2022-07-29T18:00:32.967Z,8
2022-07-29T18:10:33.373Z,8
2022-07-29T18:20:32.945Z,8
2022-07-29T18:30:34.070Z,7
2022-07-29T18:40:33.501Z,7
2022-07-29T18:50:32.874Z,7
2022-07-29T19:00:33.272Z,8
2022-07-29T19:10:32.782Z,7
2022-07-29T19:20:33.199Z,7
2022-07-29T19:30:33.977Z,9
2022-07-29T19:40:33.352Z,11
2022-07-29T19:50:33.337Z,9
2022-07-29T20:00:33.737Z,12
2022-07-29T20:10:32.976Z,9
2022-07-29T20:20:33.594Z,9
2022-07-29T20:30:32.995Z,10
2022-07-29T20:40:33.766Z,8
2022-07-29T20:50:33.101Z,11
2022-07-29T21:00:33.562Z,8
2022-07-29T21:10:33.116Z,9
2022-07-29T21:20:33.543Z,8
2022-07-29T21:30:32.794Z,6
2022-07-29T21:40:33.261Z,5
2022-07-29T21:50:33.726Z,8
2022-07-29T22:00:33.293Z,5
2022-07-29T22:10:33.732Z,5
2022-07-29T22:20:33.150Z,10
2022-07-29T22:30:33.706Z,11
2022-07-29T22:40:33.073Z,9
2022-07-29T22:50:33.957Z,9
2022-07-29T23:00:33.387Z,7
2022-07-29T23:10:33.703Z,10
2022-07-29T23:20:33.094Z,8
2022-07-29T23:30:33.730Z,8
2022-07-29T23:40:33.210Z,10
2022-07-29T23:50:33.703Z,11
